sensor_id;sensor_type;location;lat;lon;timestamp;pressure;altitude;pressure_sealevel;temperature
68952;BMP180;56000;51.146;17.112;2022-09-01T00:00:13;100766.40;;;14.60
68952;BMP180;56000;51.146;17.112;2022-09-01T00:03:02;100775.40;;;14.60
68952;BMP180;56000;51.146;17.112;2022-09-01T00:05:32;100771.40;;;14.60
68952;BMP180;56000;51.146;17.112;2022-09-01T00:08:03;100770.80;;;14.60
68952;BMP180;56000;51.146;17.112;2022-09-01T00:10:36;100763.40;;;14.60
68952;BMP180;56000;51.146;17.112;2022-09-01T00:13:06;100769.60;;;14.60
68952;BMP180;56000;51.146;17.112;2022-09-01T00:15:36;100767.80;;;14.60
68952;BMP180;56000;51.146;17.112;2022-09-01T00:18:06;100772.80;;;14.66
68952;BMP180;56000;51.146;17.112;2022-09-01T00:20:35;100773.00;;;14.70
68952;BMP180;56000;51.146;17.112;2022-09-01T00:23:04;100777.00;;;14.70
68952;BMP180;56000;51.146;17.112;2022-09-01T00:25:34;100773.80;;;14.70
68952;BMP180;56000;51.146;17.112;2022-09-01T00:28:03;100774.60;;;14.70
68952;BMP180;56000;51.146;17.112;2022-09-01T00:30:33;100773.80;;;14.70
68952;BMP180;56000;51.146;17.112;2022-09-01T00:33:02;100772.80;;;14.70
68952;BMP180;56000;51.146;17.112;2022-09-01T00:35:32;100774.80;;;14.70
68952;BMP180;56000;51.146;17.112;2022-09-01T00:38:05;100776.20;;;14.70
68952;BMP180;56000;51.146;17.112;2022-09-01T00:40:35;100776.60;;;14.70
68952;BMP180;56000;51.146;17.112;2022-09-01T00:43:16;100770.40;;;14.70
68952;BMP180;56000;51.146;17.112;2022-09-01T00:45:46;100772.40;;;14.70
68952;BMP180;56000;51.146;17.112;2022-09-01T00:48:19;100769.80;;;14.70
68952;BMP180;56000;51.146;17.112;2022-09-01T00:50:48;100769.00;;;14.70
68952;BMP180;56000;51.146;17.112;2022-09-01T00:53:23;100762.00;;;14.70
68952;BMP180;56000;51.146;17.112;2022-09-01T00:55:52;100763.00;;;14.70
68952;BMP180;56000;51.146;17.112;2022-09-01T00:58:22;100764.80;;;14.70
68952;BMP180;56000;51.146;17.112;2022-09-01T01:00:52;100764.20;;;14.70
68952;BMP180;56000;51.146;17.112;2022-09-01T01:03:22;100760.40;;;14.70
68952;BMP180;56000;51.146;17.112;2022-09-01T01:05:56;100756.80;;;14.80
68952;BMP180;56000;51.146;17.112;2022-09-01T01:08:31;100754.40;;;14.80
68952;BMP180;56000;51.146;17.112;2022-09-01T01:11:04;100756.00;;;14.80
68952;BMP180;56000;51.146;17.112;2022-09-01T01:13:50;100753.00;;;14.80
68952;BMP180;56000;51.146;17.112;2022-09-01T01:16:21;100756.00;;;14.80
68952;BMP180;56000;51.146;17.112;2022-09-01T01:18:52;100756.40;;;14.80
68952;BMP180;56000;51.146;17.112;2022-09-01T01:21:25;100750.80;;;14.82
68952;BMP180;56000;51.146;17.112;2022-09-01T01:24:23;100753.20;;;14.90
68952;BMP180;56000;51.146;17.112;2022-09-01T01:26:54;100751.00;;;14.90
68952;BMP180;56000;51.146;17.112;2022-09-01T01:29:27;100750.20;;;14.90
68952;BMP180;56000;51.146;17.112;2022-09-01T01:32:00;100755.40;;;14.90
68952;BMP180;56000;51.146;17.112;2022-09-01T01:34:29;100754.80;;;14.90
68952;BMP180;56000;51.146;17.112;2022-09-01T01:36:58;100756.80;;;14.90
68952;BMP180;56000;51.146;17.112;2022-09-01T01:39:29;100762.40;;;14.90
68952;BMP180;56000;51.146;17.112;2022-09-01T01:41:59;100762.20;;;14.90
68952;BMP180;56000;51.146;17.112;2022-09-01T01:44:28;100759.60;;;14.90
68952;BMP180;56000;51.146;17.112;2022-09-01T01:47:01;100753.60;;;14.90
68952;BMP180;56000;51.146;17.112;2022-09-01T01:49:36;100750.20;;;14.90
68952;BMP180;56000;51.146;17.112;2022-09-01T01:52:07;100751.00;;;14.90
68952;BMP180;56000;51.146;17.112;2022-09-01T01:54:37;100745.80;;;14.90
68952;BMP180;56000;51.146;17.112;2022-09-01T01:57:06;100743.20;;;14.90
68952;BMP180;56000;51.146;17.112;2022-09-01T01:59:36;100740.20;;;14.90
68952;BMP180;56000;51.146;17.112;2022-09-01T02:02:08;100737.00;;;14.90
68952;BMP180;56000;51.146;17.112;2022-09-01T02:04:40;100742.40;;;14.90
68952;BMP180;56000;51.146;17.112;2022-09-01T02:07:12;100743.80;;;14.90
68952;BMP180;56000;51.146;17.112;2022-09-01T02:09:42;100740.00;;;14.90
68952;BMP180;56000;51.146;17.112;2022-09-01T02:12:16;100741.20;;;14.90
68952;BMP180;56000;51.146;17.112;2022-09-01T02:14:47;100742.60;;;14.96
68952;BMP180;56000;51.146;17.112;2022-09-01T02:17:21;100744.80;;;15.00
68952;BMP180;56000;51.146;17.112;2022-09-01T02:19:50;100742.60;;;15.00
68952;BMP180;56000;51.146;17.112;2022-09-01T02:22:25;100740.40;;;15.00
68952;BMP180;56000;51.146;17.112;2022-09-01T02:24:56;100740.40;;;15.00
68952;BMP180;56000;51.146;17.112;2022-09-01T02:27:29;100734.40;;;15.00
68952;BMP180;56000;51.146;17.112;2022-09-01T02:30:04;100739.80;;;15.00
68952;BMP180;56000;51.146;17.112;2022-09-01T02:32:38;100741.20;;;15.00
68952;BMP180;56000;51.146;17.112;2022-09-01T02:35:10;100738.20;;;15.00
68952;BMP180;56000;51.146;17.112;2022-09-01T02:37:39;100733.60;;;15.00
68952;BMP180;56000;51.146;17.112;2022-09-01T02:40:10;100734.80;;;15.00
68952;BMP180;56000;51.146;17.112;2022-09-01T02:42:39;100733.00;;;15.00
68952;BMP180;56000;51.146;17.112;2022-09-01T02:45:11;100735.60;;;15.00
68952;BMP180;56000;51.146;17.112;2022-09-01T02:47:45;100738.00;;;15.00
68952;BMP180;56000;51.146;17.112;2022-09-01T02:50:16;100738.80;;;15.00
68952;BMP180;56000;51.146;17.112;2022-09-01T02:52:47;100739.80;;;15.00
68952;BMP180;56000;51.146;17.112;2022-09-01T02:55:20;100742.00;;;15.00
68952;BMP180;56000;51.146;17.112;2022-09-01T02:57:52;100742.60;;;15.00
68952;BMP180;56000;51.146;17.112;2022-09-01T03:00:23;100744.20;;;14.96
68952;BMP180;56000;51.146;17.112;2022-09-01T03:03:01;100743.20;;;14.90
68952;BMP180;56000;51.146;17.112;2022-09-01T03:05:32;100743.80;;;14.90
68952;BMP180;56000;51.146;17.112;2022-09-01T03:08:05;100737.60;;;14.90
68952;BMP180;56000;51.146;17.112;2022-09-01T03:10:40;100732.20;;;14.90
68952;BMP180;56000;51.146;17.112;2022-09-01T03:13:13;100735.20;;;14.90
68952;BMP180;56000;51.146;17.112;2022-09-01T03:15:43;100739.60;;;14.90
68952;BMP180;56000;51.146;17.112;2022-09-01T03:18:15;100739.60;;;14.90
68952;BMP180;56000;51.146;17.112;2022-09-01T03:20:47;100737.20;;;14.90
68952;BMP180;56000;51.146;17.112;2022-09-01T03:23:20;100739.40;;;14.90
68952;BMP180;56000;51.146;17.112;2022-09-01T03:25:53;100738.20;;;14.90
68952;BMP180;56000;51.146;17.112;2022-09-01T03:28:23;100739.80;;;14.90
68952;BMP180;56000;51.146;17.112;2022-09-01T03:30:57;100741.40;;;14.90
68952;BMP180;56000;51.146;17.112;2022-09-01T03:33:29;100742.00;;;14.88
68952;BMP180;56000;51.146;17.112;2022-09-01T03:36:00;100742.80;;;14.80
68952;BMP180;56000;51.146;17.112;2022-09-01T03:38:30;100744.80;;;14.80
68952;BMP180;56000;51.146;17.112;2022-09-01T03:41:05;100744.00;;;14.80
68952;BMP180;56000;51.146;17.112;2022-09-01T03:43:34;100746.40;;;14.80
68952;BMP180;56000;51.146;17.112;2022-09-01T03:46:04;100747.00;;;14.80
68952;BMP180;56000;51.146;17.112;2022-09-01T03:48:34;100746.40;;;14.80
68952;BMP180;56000;51.146;17.112;2022-09-01T03:51:05;100748.40;;;14.80
68952;BMP180;56000;51.146;17.112;2022-09-01T03:53:37;100743.40;;;14.80
68952;BMP180;56000;51.146;17.112;2022-09-01T03:56:07;100745.00;;;14.80
68952;BMP180;56000;51.146;17.112;2022-09-01T03:58:38;100746.80;;;14.80
68952;BMP180;56000;51.146;17.112;2022-09-01T04:01:09;100749.00;;;14.76
68952;BMP180;56000;51.146;17.112;2022-09-01T04:03:42;100752.00;;;14.70
68952;BMP180;56000;51.146;17.112;2022-09-01T04:06:20;100752.60;;;14.70
68952;BMP180;56000;51.146;17.112;2022-09-01T04:08:52;100754.60;;;14.70
68952;BMP180;56000;51.146;17.112;2022-09-01T04:11:33;100755.80;;;14.70
68952;BMP180;56000;51.146;17.112;2022-09-01T04:14:02;100755.20;;;14.70
68952;BMP180;56000;51.146;17.112;2022-09-01T04:16:35;100753.80;;;14.70
68952;BMP180;56000;51.146;17.112;2022-09-01T04:19:25;100751.20;;;14.70
68952;BMP180;56000;51.146;17.112;2022-09-01T04:22:00;100753.40;;;14.70
68952;BMP180;56000;51.146;17.112;2022-09-01T04:24:34;100750.60;;;14.70
68952;BMP180;56000;51.146;17.112;2022-09-01T04:27:04;100749.00;;;14.70
68952;BMP180;56000;51.146;17.112;2022-09-01T04:29:35;100751.80;;;14.70
68952;BMP180;56000;51.146;17.112;2022-09-01T04:32:09;100747.60;;;14.70
68952;BMP180;56000;51.146;17.112;2022-09-01T04:34:42;100751.40;;;14.70
68952;BMP180;56000;51.146;17.112;2022-09-01T04:37:21;100748.60;;;14.70
68952;BMP180;56000;51.146;17.112;2022-09-01T04:39:55;100754.80;;;14.70
68952;BMP180;56000;51.146;17.112;2022-09-01T04:42:29;100750.00;;;14.70
68952;BMP180;56000;51.146;17.112;2022-09-01T04:45:00;100747.40;;;14.80
68952;BMP180;56000;51.146;17.112;2022-09-01T04:47:41;100743.60;;;14.80
68952;BMP180;56000;51.146;17.112;2022-09-01T04:50:15;100747.40;;;14.80
68952;BMP180;56000;51.146;17.112;2022-09-01T04:53:06;100751.60;;;14.90
68952;BMP180;56000;51.146;17.112;2022-09-01T04:55:42;100751.00;;;14.90
68952;BMP180;56000;51.146;17.112;2022-09-01T04:58:16;100753.80;;;15.00
68952;BMP180;56000;51.146;17.112;2022-09-01T05:00:48;100759.40;;;15.00
68952;BMP180;56000;51.146;17.112;2022-09-01T05:03:20;100756.40;;;15.10
68952;BMP180;56000;51.146;17.112;2022-09-01T05:06:00;100751.80;;;15.10
68952;BMP180;56000;51.146;17.112;2022-09-01T05:08:32;100755.80;;;15.20
68952;BMP180;56000;51.146;17.112;2022-09-01T05:11:06;100756.20;;;15.26
68952;BMP180;56000;51.146;17.112;2022-09-01T05:13:45;100758.80;;;15.30
68952;BMP180;56000;51.146;17.112;2022-09-01T05:16:18;100760.20;;;15.40
68952;BMP180;56000;51.146;17.112;2022-09-01T05:18:56;100762.40;;;15.46
68952;BMP180;56000;51.146;17.112;2022-09-01T05:21:28;100760.00;;;15.50
68952;BMP180;56000;51.146;17.112;2022-09-01T05:24:00;100761.20;;;15.60
68952;BMP180;56000;51.146;17.112;2022-09-01T05:26:34;100758.80;;;15.70
68952;BMP180;56000;51.146;17.112;2022-09-01T05:29:05;100756.00;;;15.70
68952;BMP180;56000;51.146;17.112;2022-09-01T05:31:44;100756.60;;;15.80
68952;BMP180;56000;51.146;17.112;2022-09-01T05:34:16;100758.40;;;15.88
68952;BMP180;56000;51.146;17.112;2022-09-01T05:36:57;100754.80;;;15.90
68952;BMP180;56000;51.146;17.112;2022-09-01T05:39:27;100760.80;;;16.00
68952;BMP180;56000;51.146;17.112;2022-09-01T05:41:58;100759.20;;;16.10
68952;BMP180;56000;51.146;17.112;2022-09-01T05:44:29;100759.60;;;16.14
68952;BMP180;56000;51.146;17.112;2022-09-01T05:47:00;100763.40;;;16.20
68952;BMP180;56000;51.146;17.112;2022-09-01T05:49:33;100763.40;;;16.30
68952;BMP180;56000;51.146;17.112;2022-09-01T05:52:05;100761.00;;;16.40
68952;BMP180;56000;51.146;17.112;2022-09-01T05:54:39;100766.60;;;16.50
68952;BMP180;56000;51.146;17.112;2022-09-01T05:57:09;100768.20;;;16.70
68952;BMP180;56000;51.146;17.112;2022-09-01T05:59:59;100771.40;;;16.80
68952;BMP180;56000;51.146;17.112;2022-09-01T06:02:28;100775.40;;;16.80
68952;BMP180;56000;51.146;17.112;2022-09-01T06:04:58;100777.60;;;16.90
68952;BMP180;56000;51.146;17.112;2022-09-01T06:07:32;100780.40;;;16.90
68952;BMP180;56000;51.146;17.112;2022-09-01T06:10:01;100775.20;;;16.96
68952;BMP180;56000;51.146;17.112;2022-09-01T06:12:34;100777.20;;;17.00
68952;BMP180;56000;51.146;17.112;2022-09-01T06:15:06;100772.20;;;17.10
68952;BMP180;56000;51.146;17.112;2022-09-01T06:17:44;100784.20;;;17.20
68952;BMP180;56000;51.146;17.112;2022-09-01T06:20:15;100779.20;;;17.30
68952;BMP180;56000;51.146;17.112;2022-09-01T06:22:47;100776.80;;;17.40
68952;BMP180;56000;51.146;17.112;2022-09-01T06:25:18;100773.40;;;17.40
68952;BMP180;56000;51.146;17.112;2022-09-01T06:27:49;100771.60;;;17.50
68952;BMP180;56000;51.146;17.112;2022-09-01T06:30:21;100777.20;;;17.70
68952;BMP180;56000;51.146;17.112;2022-09-01T06:32:59;100776.40;;;17.80
68952;BMP180;56000;51.146;17.112;2022-09-01T06:35:30;100781.00;;;17.90
68952;BMP180;56000;51.146;17.112;2022-09-01T06:38:01;100785.60;;;18.08
68952;BMP180;56000;51.146;17.112;2022-09-01T06:40:46;100786.40;;;18.10
68952;BMP180;56000;51.146;17.112;2022-09-01T06:43:20;100784.00;;;18.10
68952;BMP180;56000;51.146;17.112;2022-09-01T06:45:51;100783.20;;;18.20
68952;BMP180;56000;51.146;17.112;2022-09-01T06:48:24;100788.80;;;18.10
68952;BMP180;56000;51.146;17.112;2022-09-01T06:51:01;100795.80;;;18.10
68952;BMP180;56000;51.146;17.112;2022-09-01T06:53:55;100792.80;;;18.10
68952;BMP180;56000;51.146;17.112;2022-09-01T06:56:31;100789.80;;;18.20
68952;BMP180;56000;51.146;17.112;2022-09-01T06:59:07;100788.20;;;18.40
68952;BMP180;56000;51.146;17.112;2022-09-01T07:01:38;100792.20;;;18.44
68952;BMP180;56000;51.146;17.112;2022-09-01T07:04:08;100789.00;;;18.58
68952;BMP180;56000;51.146;17.112;2022-09-01T07:06:48;100792.00;;;18.80
68952;BMP180;56000;51.146;17.112;2022-09-01T07:10:12;100790.00;;;18.90
68952;BMP180;56000;51.146;17.112;2022-09-01T07:13:10;100795.60;;;19.10
68952;BMP180;56000;51.146;17.112;2022-09-01T07:15:52;100795.20;;;19.30
68952;BMP180;56000;51.146;17.112;2022-09-01T07:18:43;100795.60;;;19.34
68952;BMP180;56000;51.146;17.112;2022-09-01T07:21:29;100793.00;;;19.38
68952;BMP180;56000;51.146;17.112;2022-09-01T07:24:12;100792.80;;;19.30
68952;BMP180;56000;51.146;17.112;2022-09-01T07:27:06;100796.80;;;19.20
68952;BMP180;56000;51.146;17.112;2022-09-01T07:29:39;100799.00;;;19.20
68952;BMP180;56000;51.146;17.112;2022-09-01T07:32:10;100797.00;;;19.30
68952;BMP180;56000;51.146;17.112;2022-09-01T07:35:00;100803.40;;;19.44
68952;BMP180;56000;51.146;17.112;2022-09-01T07:37:31;100803.40;;;19.50
68952;BMP180;56000;51.146;17.112;2022-09-01T07:40:23;100800.00;;;19.70
68952;BMP180;56000;51.146;17.112;2022-09-01T07:43:42;100801.80;;;19.78
68952;BMP180;56000;51.146;17.112;2022-09-01T07:46:18;100801.20;;;19.70
68952;BMP180;56000;51.146;17.112;2022-09-01T07:49:19;100810.20;;;19.80
68952;BMP180;56000;51.146;17.112;2022-09-01T07:52:11;100802.60;;;20.00
68952;BMP180;56000;51.146;17.112;2022-09-01T07:54:44;100805.60;;;20.20
68952;BMP180;56000;51.146;17.112;2022-09-01T07:57:13;100808.80;;;20.30
68952;BMP180;56000;51.146;17.112;2022-09-01T07:59:43;100803.40;;;20.30
68952;BMP180;56000;51.146;17.112;2022-09-01T08:02:19;100807.20;;;20.40
68952;BMP180;56000;51.146;17.112;2022-09-01T08:04:50;100812.00;;;20.60
68952;BMP180;56000;51.146;17.112;2022-09-01T08:07:20;100805.20;;;20.70
68952;BMP180;56000;51.146;17.112;2022-09-01T08:09:50;100805.00;;;20.90
68952;BMP180;56000;51.146;17.112;2022-09-01T08:12:24;100811.80;;;20.90
68952;BMP180;56000;51.146;17.112;2022-09-01T08:14:58;100808.20;;;21.00
68952;BMP180;56000;51.146;17.112;2022-09-01T08:17:48;100808.40;;;21.10
68952;BMP180;56000;51.146;17.112;2022-09-01T08:20:20;100812.80;;;21.10
68952;BMP180;56000;51.146;17.112;2022-09-01T08:22:56;100815.60;;;21.10
68952;BMP180;56000;51.146;17.112;2022-09-01T08:25:35;100819.00;;;20.98
68952;BMP180;56000;51.146;17.112;2022-09-01T08:28:06;100814.80;;;20.70
68952;BMP180;56000;51.146;17.112;2022-09-01T08:30:38;100813.40;;;20.80
68952;BMP180;56000;51.146;17.112;2022-09-01T08:33:08;100820.80;;;21.10
68952;BMP180;56000;51.146;17.112;2022-09-01T08:35:47;100821.20;;;21.10
68952;BMP180;56000;51.146;17.112;2022-09-01T08:38:18;100815.20;;;21.22
68952;BMP180;56000;51.146;17.112;2022-09-01T08:40:54;100816.40;;;21.94
68952;BMP180;56000;51.146;17.112;2022-09-01T08:43:47;100819.40;;;22.58
68952;BMP180;56000;51.146;17.112;2022-09-01T08:46:24;100822.60;;;22.40
68952;BMP180;56000;51.146;17.112;2022-09-01T08:48:58;100815.00;;;22.22
68952;BMP180;56000;51.146;17.112;2022-09-01T08:52:20;100810.20;;;22.84
68952;BMP180;56000;51.146;17.112;2022-09-01T08:54:59;100815.40;;;23.40
68952;BMP180;56000;51.146;17.112;2022-09-01T08:57:34;100821.60;;;23.46
68952;BMP180;56000;51.146;17.112;2022-09-01T09:00:24;100816.00;;;24.22
68952;BMP180;56000;51.146;17.112;2022-09-01T09:03:18;100812.20;;;24.72
68952;BMP180;56000;51.146;17.112;2022-09-01T09:06:06;100812.60;;;25.40
68952;BMP180;56000;51.146;17.112;2022-09-01T09:08:57;100812.40;;;26.14
68952;BMP180;56000;51.146;17.112;2022-09-01T09:11:59;100817.20;;;26.70
68952;BMP180;56000;51.146;17.112;2022-09-01T09:15:08;100818.00;;;26.06
68952;BMP180;56000;51.146;17.112;2022-09-01T09:17:42;100815.00;;;25.70
68952;BMP180;56000;51.146;17.112;2022-09-01T09:20:13;100819.20;;;26.14
68952;BMP180;56000;51.146;17.112;2022-09-01T09:22:44;100818.20;;;26.76
68952;BMP180;56000;51.146;17.112;2022-09-01T09:25:18;100812.60;;;27.48
68952;BMP180;56000;51.146;17.112;2022-09-01T09:27:49;100810.40;;;28.16
68952;BMP180;56000;51.146;17.112;2022-09-01T09:30:30;100804.20;;;28.68
68952;BMP180;56000;51.146;17.112;2022-09-01T09:33:03;100811.20;;;28.64
68952;BMP180;56000;51.146;17.112;2022-09-01T09:35:53;100811.00;;;27.66
68952;BMP180;56000;51.146;17.112;2022-09-01T09:38:26;100819.00;;;26.68
68952;BMP180;56000;51.146;17.112;2022-09-01T09:41:00;100814.00;;;26.00
68952;BMP180;56000;51.146;17.112;2022-09-01T09:43:56;100812.40;;;26.86
68952;BMP180;56000;51.146;17.112;2022-09-01T09:46:35;100809.20;;;27.60
68952;BMP180;56000;51.146;17.112;2022-09-01T09:49:16;100812.60;;;28.12
68952;BMP180;56000;51.146;17.112;2022-09-01T09:52:16;100810.80;;;29.16
68952;BMP180;56000;51.146;17.112;2022-09-01T09:55:21;100810.80;;;29.62
68952;BMP180;56000;51.146;17.112;2022-09-01T09:57:56;100818.40;;;28.52
68952;BMP180;56000;51.146;17.112;2022-09-01T10:00:32;100816.40;;;27.34
68952;BMP180;56000;51.146;17.112;2022-09-01T10:03:08;100813.60;;;26.06
68952;BMP180;56000;51.146;17.112;2022-09-01T10:05:44;100810.20;;;25.06
68952;BMP180;56000;51.146;17.112;2022-09-01T10:08:40;100802.80;;;26.32
68952;BMP180;56000;51.146;17.112;2022-09-01T10:11:29;100797.20;;;28.22
68952;BMP180;56000;51.146;17.112;2022-09-01T10:14:10;100795.20;;;29.96
68952;BMP180;56000;51.146;17.112;2022-09-01T10:17:07;100794.20;;;31.12
68952;BMP180;56000;51.146;17.112;2022-09-01T10:19:37;100811.60;;;31.66
68952;BMP180;56000;51.146;17.112;2022-09-01T10:22:10;100812.00;;;29.72
68952;BMP180;56000;51.146;17.112;2022-09-01T10:24:43;100811.40;;;28.44
68952;BMP180;56000;51.146;17.112;2022-09-01T10:27:22;100813.00;;;27.40
68952;BMP180;56000;51.146;17.112;2022-09-01T10:29:59;100813.40;;;26.44
68952;BMP180;56000;51.146;17.112;2022-09-01T10:32:54;100808.00;;;25.82
68952;BMP180;56000;51.146;17.112;2022-09-01T10:35:31;100805.80;;;27.00
68952;BMP180;56000;51.146;17.112;2022-09-01T10:38:05;100802.60;;;28.88
68952;BMP180;56000;51.146;17.112;2022-09-01T10:40:43;100800.40;;;30.66
68952;BMP180;56000;51.146;17.112;2022-09-01T10:43:36;100794.60;;;31.54
68952;BMP180;56000;51.146;17.112;2022-09-01T10:46:42;100801.60;;;32.96
68952;BMP180;56000;51.146;17.112;2022-09-01T10:53:01;100810.20;;;33.80
68952;BMP180;56000;51.146;17.112;2022-09-01T10:55:40;100806.00;;;34.52
68952;BMP180;56000;51.146;17.112;2022-09-01T10:59:04;100813.40;;;35.30
68952;BMP180;56000;51.146;17.112;2022-09-01T11:02:15;100805.20;;;33.54
68952;BMP180;56000;51.146;17.112;2022-09-01T11:05:17;100811.20;;;35.06
68952;BMP180;56000;51.146;17.112;2022-09-01T11:07:47;100807.40;;;35.76
68952;BMP180;56000;51.146;17.112;2022-09-01T11:10:55;100808.80;;;36.52
68952;BMP180;56000;51.146;17.112;2022-09-01T11:13:42;100817.80;;;36.88
68952;BMP180;56000;51.146;17.112;2022-09-01T11:16:33;100828.00;;;36.10
68952;BMP180;56000;51.146;17.112;2022-09-01T11:19:38;100810.40;;;34.58
68952;BMP180;56000;51.146;17.112;2022-09-01T11:22:24;100816.80;;;35.86
68952;BMP180;56000;51.146;17.112;2022-09-01T11:25:32;100821.20;;;36.80
68952;BMP180;56000;51.146;17.112;2022-09-01T11:28:36;100820.80;;;37.04
68952;BMP180;56000;51.146;17.112;2022-09-01T11:31:36;100815.20;;;37.64
68952;BMP180;56000;51.146;17.112;2022-09-01T11:34:15;100814.40;;;38.46
68952;BMP180;56000;51.146;17.112;2022-09-01T11:36:54;100814.80;;;37.72
68952;BMP180;56000;51.146;17.112;2022-09-01T11:39:39;100820.20;;;37.90
68952;BMP180;56000;51.146;17.112;2022-09-01T11:42:17;100820.20;;;38.08
68952;BMP180;56000;51.146;17.112;2022-09-01T11:44:52;100823.80;;;38.50
68952;BMP180;56000;51.146;17.112;2022-09-01T11:47:26;100820.00;;;38.80
68952;BMP180;56000;51.146;17.112;2022-09-01T11:50:02;100817.80;;;39.04
68952;BMP180;56000;51.146;17.112;2022-09-01T11:52:35;100818.00;;;39.00
68952;BMP180;56000;51.146;17.112;2022-09-01T11:55:09;100815.00;;;39.18
68952;BMP180;56000;51.146;17.112;2022-09-01T11:57:39;100810.40;;;38.84
68952;BMP180;56000;51.146;17.112;2022-09-01T12:00:15;100811.60;;;39.04
68952;BMP180;56000;51.146;17.112;2022-09-01T12:02:53;100810.40;;;39.32
68952;BMP180;56000;51.146;17.112;2022-09-01T12:05:32;100811.60;;;39.86
68952;BMP180;56000;51.146;17.112;2022-09-01T12:08:04;100816.40;;;40.50
68952;BMP180;56000;51.146;17.112;2022-09-01T12:10:42;100810.20;;;41.00
68952;BMP180;56000;51.146;17.112;2022-09-01T12:13:19;100811.00;;;41.46
68952;BMP180;56000;51.146;17.112;2022-09-01T12:15:56;100804.80;;;41.62
68952;BMP180;56000;51.146;17.112;2022-09-01T12:18:47;100802.80;;;41.90
68952;BMP180;56000;51.146;17.112;2022-09-01T12:21:23;100800.00;;;42.10
68952;BMP180;56000;51.146;17.112;2022-09-01T12:23:54;100801.40;;;42.38
68952;BMP180;56000;51.146;17.112;2022-09-01T12:26:38;100813.00;;;40.90
68952;BMP180;56000;51.146;17.112;2022-09-01T12:29:10;100815.80;;;37.70
68952;BMP180;56000;51.146;17.112;2022-09-01T12:31:44;100815.80;;;34.50
68952;BMP180;56000;51.146;17.112;2022-09-01T12:34:37;100814.00;;;31.76
68952;BMP180;56000;51.146;17.112;2022-09-01T12:37:18;100816.80;;;29.74
68952;BMP180;56000;51.146;17.112;2022-09-01T12:39:50;100813.60;;;28.30
68952;BMP180;56000;51.146;17.112;2022-09-01T12:42:28;100816.00;;;27.14
68952;BMP180;56000;51.146;17.112;2022-09-01T12:45:11;100815.80;;;26.20
68952;BMP180;56000;51.146;17.112;2022-09-01T12:47:49;100805.00;;;25.70
68952;BMP180;56000;51.146;17.112;2022-09-01T12:50:43;100804.80;;;26.88
68952;BMP180;56000;51.146;17.112;2022-09-01T12:53:21;100798.40;;;29.48
68952;BMP180;56000;51.146;17.112;2022-09-01T12:56:20;100796.20;;;31.84
68952;BMP180;56000;51.146;17.112;2022-09-01T12:59:07;100791.40;;;33.92
68952;BMP180;56000;51.146;17.112;2022-09-01T13:01:46;100790.00;;;35.62
68952;BMP180;56000;51.146;17.112;2022-09-01T13:04:26;100787.40;;;36.86
68952;BMP180;56000;51.146;17.112;2022-09-01T13:07:04;100794.80;;;38.02
68952;BMP180;56000;51.146;17.112;2022-09-01T13:09:34;100790.40;;;39.00
68952;BMP180;56000;51.146;17.112;2022-09-01T13:12:18;100781.40;;;39.92
68952;BMP180;56000;51.146;17.112;2022-09-01T13:14:49;100790.60;;;40.38
68952;BMP180;56000;51.146;17.112;2022-09-01T13:17:20;100781.40;;;40.94
68952;BMP180;56000;51.146;17.112;2022-09-01T13:19:52;100784.00;;;41.00
68952;BMP180;56000;51.146;17.112;2022-09-01T13:22:21;100795.40;;;39.98
68952;BMP180;56000;51.146;17.112;2022-09-01T13:24:51;100790.60;;;37.34
68952;BMP180;56000;51.146;17.112;2022-09-01T13:27:20;100797.60;;;36.56
68952;BMP180;56000;51.146;17.112;2022-09-01T13:29:51;100800.40;;;34.54
68952;BMP180;56000;51.146;17.112;2022-09-01T13:32:23;100792.80;;;32.70
68952;BMP180;56000;51.146;17.112;2022-09-01T13:34:53;100793.40;;;33.54
68952;BMP180;56000;51.146;17.112;2022-09-01T13:37:23;100793.80;;;34.98
68952;BMP180;56000;51.146;17.112;2022-09-01T13:39:53;100795.40;;;35.86
68952;BMP180;56000;51.146;17.112;2022-09-01T13:42:22;100792.20;;;36.98
68952;BMP180;56000;51.146;17.112;2022-09-01T13:44:56;100795.60;;;37.76
68952;BMP180;56000;51.146;17.112;2022-09-01T13:47:26;100792.60;;;37.72
68952;BMP180;56000;51.146;17.112;2022-09-01T13:49:59;100788.60;;;38.22
68952;BMP180;56000;51.146;17.112;2022-09-01T13:52:41;100788.40;;;38.92
68952;BMP180;56000;51.146;17.112;2022-09-01T13:55:15;100797.60;;;39.06
68952;BMP180;56000;51.146;17.112;2022-09-01T13:57:45;100803.80;;;39.44
68952;BMP180;56000;51.146;17.112;2022-09-01T14:00:19;100808.00;;;37.20
68952;BMP180;56000;51.146;17.112;2022-09-01T14:02:55;100802.40;;;34.10
68952;BMP180;56000;51.146;17.112;2022-09-01T14:05:27;100802.80;;;31.54
68952;BMP180;56000;51.146;17.112;2022-09-01T14:07:58;100805.40;;;29.68
68952;BMP180;56000;51.146;17.112;2022-09-01T14:10:29;100802.40;;;28.12
68952;BMP180;56000;51.146;17.112;2022-09-01T14:13:00;100803.00;;;26.94
68952;BMP180;56000;51.146;17.112;2022-09-01T14:15:29;100793.80;;;26.14
68952;BMP180;56000;51.146;17.112;2022-09-01T14:17:59;100794.00;;;25.50
68952;BMP180;56000;51.146;17.112;2022-09-01T14:20:34;100791.80;;;25.20
68952;BMP180;56000;51.146;17.112;2022-09-01T14:23:07;100789.80;;;25.66
68952;BMP180;56000;51.146;17.112;2022-09-01T14:25:44;100785.00;;;26.96
68952;BMP180;56000;51.146;17.112;2022-09-01T14:28:16;100783.40;;;29.22
68952;BMP180;56000;51.146;17.112;2022-09-01T14:30:49;100785.60;;;31.54
68952;BMP180;56000;51.146;17.112;2022-09-01T14:33:19;100785.40;;;32.04
68952;BMP180;56000;51.146;17.112;2022-09-01T14:35:52;100778.80;;;33.32
68952;BMP180;56000;51.146;17.112;2022-09-01T14:38:22;100781.00;;;34.70
68952;BMP180;56000;51.146;17.112;2022-09-01T14:40:51;100775.20;;;35.92